createdAt,value
2022-08-26T02:30:22.748Z,0
2022-08-26T02:31:22.808Z,0
2022-08-26T02:32:22.740Z,0
2022-08-26T02:33:22.737Z,0
2022-08-26T02:34:22.734Z,0
2022-08-26T02:35:22.740Z,0
2022-08-26T02:36:22.736Z,0
2022-08-26T02:37:23.032Z,0
2022-08-26T02:38:22.730Z,0
2022-08-26T02:39:22.712Z,0
2022-08-26T02:40:22.764Z,0
2022-08-26T02:41:23.061Z,0
2022-08-26T02:42:22.708Z,0
2022-08-26T02:43:31.396Z,0
2022-08-26T02:44:22.711Z,0
2022-08-26T02:47:24.860Z,0
2022-08-26T02:48:22.726Z,0
2022-08-26T02:49:22.716Z,0
2022-08-26T02:50:22.742Z,0
2022-08-26T02:51:22.731Z,0
2022-08-26T02:52:22.749Z,0
2022-08-26T02:53:25.399Z,0
2022-08-26T02:54:22.733Z,0
2022-08-26T02:55:24.820Z,0
2022-08-26T02:56:22.733Z,0
2022-08-26T02:57:22.745Z,0
2022-08-26T02:58:22.743Z,0
2022-08-26T02:59:24.507Z,0
2022-08-26T03:00:22.756Z,0
2022-08-26T03:01:22.784Z,0
2022-08-26T03:02:22.881Z,0
2022-08-26T03:03:23.657Z,0
2022-08-26T03:04:22.736Z,0
2022-08-26T03:05:24.060Z,0
2022-08-26T03:06:22.744Z,0
2022-08-26T03:07:22.746Z,0
2022-08-26T03:08:22.751Z,0
2022-08-26T03:09:22.731Z,0
2022-08-26T03:10:22.738Z,0
2022-08-26T03:11:22.739Z,0
2022-08-26T03:12:22.749Z,0
2022-08-26T03:13:22.740Z,0
2022-08-26T03:14:22.730Z,0
2022-08-26T03:15:22.739Z,0
2022-08-26T03:16:22.792Z,0
2022-08-26T03:17:22.750Z,0
2022-08-26T03:18:22.729Z,0
2022-08-26T03:19:22.727Z,0
2022-08-26T03:20:22.711Z,0
2022-08-26T03:21:22.741Z,0
2022-08-26T03:22:22.740Z,0
2022-08-26T03:23:22.753Z,0
2022-08-26T03:24:22.737Z,0
2022-08-26T03:25:22.725Z,0
2022-08-26T03:26:22.730Z,0
2022-08-26T03:27:22.743Z,0
2022-08-26T03:28:22.731Z,0
2022-08-26T03:29:22.739Z,0
2022-08-26T03:30:22.711Z,0
2022-08-26T03:31:24.623Z,0
2022-08-26T03:32:22.752Z,0
2022-08-26T03:33:22.729Z,0
2022-08-26T03:34:22.731Z,0
2022-08-26T03:35:22.710Z,0
2022-08-26T03:36:22.731Z,0
2022-08-26T03:37:22.747Z,0
2022-08-26T03:38:22.747Z,0
2022-08-26T03:39:22.738Z,1
2022-08-26T03:40:22.813Z,1
2022-08-26T03:41:22.726Z,3
2022-08-26T03:42:22.743Z,3
2022-08-26T03:43:22.741Z,5
2022-08-26T03:44:22.717Z,7
2022-08-26T03:45:22.726Z,9
2022-08-26T03:46:22.774Z,11
2022-08-26T03:47:22.735Z,14
2022-08-26T03:48:22.711Z,16
2022-08-26T03:49:22.716Z,20
2022-08-26T03:50:24.261Z,22
2022-08-26T03:51:22.710Z,27
2022-08-26T03:52:22.730Z,31
2022-08-26T03:53:22.746Z,36
2022-08-26T03:54:22.718Z,44
2022-08-26T03:55:23.787Z,51
2022-08-26T03:56:22.714Z,58
2022-08-26T03:57:22.725Z,64
2022-08-26T03:58:22.737Z,73
2022-08-26T03:59:22.729Z,82
2022-08-26T04:00:22.711Z,94
2022-08-26T04:01:22.777Z,105
2022-08-26T04:02:22.994Z,117
2022-08-26T04:03:22.809Z,129
2022-08-26T04:04:24.509Z,141
2022-08-26T04:05:22.844Z,156
2022-08-26T04:06:22.730Z,171
2022-08-26T04:07:22.745Z,188
2022-08-26T04:08:22.739Z,188
2022-08-26T04:09:22.727Z,221
2022-08-26T04:10:22.716Z,239
2022-08-26T04:11:22.738Z,256
2022-08-26T04:12:22.739Z,274
2022-08-26T04:13:22.725Z,294
2022-08-26T04:14:22.721Z,315
2022-08-26T04:15:22.720Z,337
2022-08-26T04:16:22.820Z,357
2022-08-26T04:17:24.937Z,379
2022-08-26T04:18:22.731Z,401
2022-08-26T04:19:22.716Z,427
2022-08-26T04:20:22.716Z,449
2022-08-26T04:21:22.739Z,477
2022-08-26T04:22:24.045Z,503
2022-08-26T04:23:22.753Z,532
2022-08-26T04:24:22.730Z,560
2022-08-26T04:25:22.739Z,591
2022-08-26T04:26:22.725Z,619
2022-08-26T04:27:22.737Z,648
2022-08-26T04:28:22.732Z,678
2022-08-26T04:29:22.734Z,713
2022-08-26T04:30:22.717Z,748
2022-08-26T04:31:22.827Z,774
2022-08-26T04:32:22.746Z,805
2022-08-26T04:33:32.531Z,838
2022-08-26T04:34:22.736Z,869
2022-08-26T04:35:25.666Z,899
2022-08-26T04:36:22.733Z,934
2022-08-26T04:37:22.748Z,963
2022-08-26T04:38:22.744Z,995
2022-08-26T04:39:22.735Z,1034
2022-08-26T04:40:22.743Z,1061
2022-08-26T04:41:22.731Z,1096
2022-08-26T04:42:22.862Z,1133
2022-08-26T04:43:22.728Z,1163
2022-08-26T04:44:22.726Z,1199
2022-08-26T04:45:23.058Z,1234
2022-08-26T04:46:22.860Z,1271
2022-08-26T04:47:22.750Z,1306
2022-08-26T04:48:22.741Z,1351
2022-08-26T04:49:22.733Z,1387
2022-08-26T04:50:22.714Z,1424
2022-08-26T04:51:22.733Z,1469
2022-08-26T04:52:22.777Z,1509
2022-08-26T04:53:22.758Z,1550
2022-08-26T04:54:22.735Z,1587
2022-08-26T04:55:37.300Z,1647
2022-08-26T04:56:22.715Z,1669
2022-08-26T04:57:22.732Z,1701
2022-08-26T04:58:22.715Z,1730
2022-08-26T04:59:22.714Z,1771
2022-08-26T05:00:22.721Z,1804
2022-08-26T05:01:22.738Z,1848
2022-08-26T05:02:22.738Z,1881
2022-08-26T05:03:22.714Z,1918
2022-08-26T05:04:22.731Z,1953
2022-08-26T05:05:22.713Z,1986
2022-08-26T05:06:22.715Z,2020
2022-08-26T05:07:22.727Z,2060
2022-08-26T05:08:22.725Z,2060
2022-08-26T05:09:22.731Z,2123
2022-08-26T05:10:22.715Z,2156
2022-08-26T05:11:22.725Z,2182
2022-08-26T05:12:22.753Z,2215
2022-08-26T05:13:22.726Z,2245
2022-08-26T05:14:22.723Z,2281
2022-08-26T05:15:22.715Z,2324
2022-08-26T05:16:22.849Z,2362
2022-08-26T05:17:22.746Z,2396
2022-08-26T05:18:22.935Z,2434
2022-08-26T05:19:22.736Z,2486
2022-08-26T05:20:26.071Z,2523
2022-08-26T05:21:22.726Z,2556
2022-08-26T05:22:22.745Z,2582
2022-08-26T05:23:22.895Z,2628
2022-08-26T05:24:22.737Z,2670
2022-08-26T05:25:22.733Z,2703
2022-08-26T05:26:22.927Z,2740
2022-08-26T05:27:22.746Z,2781
2022-08-26T05:28:22.734Z,2790
2022-08-26T05:29:22.721Z,2816
2022-08-26T05:30:22.718Z,2845
2022-08-26T05:31:22.825Z,2869
2022-08-26T05:32:22.747Z,2906
2022-08-26T05:33:22.731Z,2925
2022-08-26T05:34:22.733Z,2954
2022-08-26T05:35:22.736Z,2980
2022-08-26T05:36:22.743Z,3013
2022-08-26T05:37:22.734Z,3056
2022-08-26T05:38:22.745Z,3083
2022-08-26T05:39:22.735Z,3115
2022-08-26T05:40:22.822Z,3155
2022-08-26T05:41:22.728Z,3175
2022-08-26T05:42:22.749Z,3203
2022-08-26T05:43:22.736Z,3251
2022-08-26T05:44:22.732Z,3290
2022-08-26T05:45:22.733Z,3330
2022-08-26T05:46:22.805Z,3360
2022-08-26T05:47:22.740Z,3389
2022-08-26T05:48:24.402Z,3408
2022-08-26T05:49:26.198Z,3435
2022-08-26T05:50:22.889Z,3478
2022-08-26T05:51:25.857Z,3502
2022-08-26T05:52:25.893Z,3531
2022-08-26T05:53:22.740Z,3562
2022-08-26T05:54:22.729Z,3712
2022-08-26T05:55:22.745Z,4561
2022-08-26T05:56:22.740Z,5568
2022-08-26T05:57:23.132Z,6441
2022-08-26T05:58:22.731Z,6700
2022-08-26T05:59:24.559Z,6840
2022-08-26T06:00:22.714Z,6939
2022-08-26T06:01:24.178Z,7146
2022-08-26T06:02:22.816Z,7173
2022-08-26T06:03:22.725Z,7280
2022-08-26T06:04:22.729Z,7433
2022-08-26T06:05:22.730Z,7535
2022-08-26T06:06:27.307Z,7588
2022-08-26T06:07:22.730Z,7689
2022-08-26T06:08:22.737Z,7689
2022-08-26T06:09:22.722Z,7804
2022-08-26T06:10:32.140Z,7881
2022-08-26T06:11:22.709Z,7970
2022-08-26T06:12:22.726Z,8040
2022-08-26T06:13:22.796Z,8200
2022-08-26T06:14:22.709Z,8974
2022-08-26T06:15:22.717Z,8526
2022-08-26T06:16:22.788Z,8393
2022-08-26T06:17:22.716Z,8775
2022-08-26T06:18:22.713Z,8790
2022-08-26T06:19:22.709Z,8801
2022-08-26T06:20:22.717Z,8839
2022-08-26T06:21:22.727Z,8860
2022-08-26T06:22:23.744Z,8970
2022-08-26T06:23:22.742Z,9140
2022-08-26T06:24:27.442Z,9282
2022-08-26T06:25:22.723Z,9367
2022-08-26T06:26:22.727Z,9479
2022-08-26T06:27:22.747Z,9538
2022-08-26T06:28:22.721Z,9665
2022-08-26T06:29:24.023Z,9761
2022-08-26T06:30:22.717Z,9980
2022-08-26T06:31:22.801Z,10045
2022-08-26T06:32:22.742Z,10121
2022-08-26T06:33:22.728Z,10205
2022-08-26T06:34:22.732Z,10255
2022-08-26T06:35:22.734Z,10277
2022-08-26T06:36:22.737Z,10353
2022-08-26T06:37:22.751Z,10434
2022-08-26T06:38:22.727Z,10513
2022-08-26T06:39:22.746Z,10600
2022-08-26T06:40:22.782Z,10661
2022-08-26T06:41:22.731Z,10677
2022-08-26T06:42:22.742Z,10703
2022-08-26T06:43:22.732Z,10861
2022-08-26T06:44:22.732Z,11418
2022-08-26T06:45:22.737Z,11214
2022-08-26T06:46:22.805Z,11296
2022-08-26T06:47:22.743Z,11379
2022-08-26T06:48:22.734Z,11547
2022-08-26T06:49:25.838Z,11671
2022-08-26T06:50:22.737Z,11632
2022-08-26T06:51:23.652Z,11684
2022-08-26T06:52:24.593Z,11814
2022-08-26T06:53:22.778Z,12150
2022-08-26T06:54:22.735Z,12305
2022-08-26T06:55:22.718Z,12334
2022-08-26T06:56:22.739Z,12467
2022-08-26T06:57:22.749Z,12618
2022-08-26T06:58:22.738Z,12681
2022-08-26T06:59:22.736Z,12788
2022-08-26T07:00:22.726Z,12813
2022-08-26T07:01:22.825Z,12872
2022-08-26T07:02:22.810Z,12974
2022-08-26T07:03:22.741Z,12907
2022-08-26T07:04:23.291Z,13059
2022-08-26T07:05:22.735Z,13236
2022-08-26T07:06:22.729Z,13435
2022-08-26T07:07:22.747Z,13700
2022-08-26T07:08:22.749Z,13700
2022-08-26T07:09:22.735Z,14535
2022-08-26T07:10:22.769Z,14577
2022-08-26T07:11:22.726Z,14769
2022-08-26T07:12:22.746Z,14218
2022-08-26T07:13:30.719Z,14723
2022-08-26T07:14:22.737Z,15057
2022-08-26T07:15:24.013Z,15014
2022-08-26T07:16:22.779Z,15370
2022-08-26T07:17:24.987Z,15422
2022-08-26T07:18:22.714Z,15256
2022-08-26T07:19:30.985Z,15106
2022-08-26T07:20:22.744Z,14476
2022-08-26T07:21:22.738Z,13706
2022-08-26T07:22:22.738Z,13328
2022-08-26T07:23:22.731Z,13132
2022-08-26T07:24:22.717Z,12896
2022-08-26T07:25:22.721Z,12869
2022-08-26T07:26:22.713Z,12799
2022-08-26T07:27:22.727Z,12778
2022-08-26T07:28:22.708Z,13201
2022-08-26T07:29:22.716Z,13282
2022-08-26T07:30:22.751Z,13107
2022-08-26T07:31:22.835Z,13077
2022-08-26T07:32:22.949Z,13040
2022-08-26T07:33:22.730Z,13003
2022-08-26T07:34:22.729Z,12941
2022-08-26T07:35:22.722Z,12858
2022-08-26T07:36:22.736Z,12531
2022-08-26T07:37:22.748Z,12237
2022-08-26T07:38:22.752Z,12496
2022-08-26T07:39:22.736Z,12445
2022-08-26T07:40:22.858Z,12439
2022-08-26T07:41:22.930Z,12480
2022-08-26T07:42:22.746Z,12535
2022-08-26T07:43:22.726Z,12625
2022-08-26T07:44:22.730Z,12695
2022-08-26T07:45:22.761Z,12777
2022-08-26T07:46:27.417Z,12861
2022-08-26T07:47:25.851Z,12911
2022-08-26T07:48:22.721Z,13046
2022-08-26T07:49:22.906Z,13070
2022-08-26T07:50:22.713Z,13363
2022-08-26T07:51:22.723Z,13930
2022-08-26T07:52:26.200Z,13057
2022-08-26T07:53:24.150Z,13363
2022-08-26T07:54:26.687Z,13429
2022-08-26T07:55:22.717Z,13468
2022-08-26T07:56:22.737Z,13484
2022-08-26T07:57:24.275Z,13521
2022-08-26T07:58:22.728Z,13584
2022-08-26T07:59:22.735Z,13680
2022-08-26T08:00:22.709Z,13777
2022-08-26T08:01:22.796Z,13853
2022-08-26T08:02:22.752Z,13929
2022-08-26T08:03:22.735Z,13923
2022-08-26T08:04:26.436Z,14000
2022-08-26T08:05:22.815Z,14979
2022-08-26T08:06:22.732Z,14948
2022-08-26T08:07:25.784Z,14494
2022-08-26T08:08:27.539Z,14494
2022-08-26T08:09:22.736Z,14729
2022-08-26T08:10:22.709Z,14734
2022-08-26T08:11:22.733Z,14797
2022-08-26T08:12:22.741Z,14823
2022-08-26T08:13:22.734Z,14837
2022-08-26T08:14:22.725Z,14880
2022-08-26T08:15:22.729Z,14966
2022-08-26T08:16:22.766Z,14987
2022-08-26T08:17:22.798Z,15105
2022-08-26T08:18:22.727Z,15187
2022-08-26T08:19:22.736Z,15272
2022-08-26T08:20:23.074Z,15366
2022-08-26T08:21:23.634Z,15399
2022-08-26T08:22:22.743Z,15517
2022-08-26T08:23:22.733Z,15586
2022-08-26T08:24:22.729Z,15726
2022-08-26T08:25:22.710Z,15705
2022-08-26T08:26:22.733Z,15750
2022-08-26T08:27:24.119Z,16214
2022-08-26T08:28:22.736Z,16684
2022-08-26T08:29:22.734Z,15213
2022-08-26T08:30:23.212Z,15258
2022-08-26T08:31:45.362Z,15398
2022-08-26T08:32:22.768Z,15527
2022-08-26T08:33:22.712Z,15687
2022-08-26T08:34:22.732Z,15842
2022-08-26T08:35:22.755Z,15949
2022-08-26T08:36:22.726Z,16223
2022-08-26T08:37:22.759Z,16347
2022-08-26T08:38:22.781Z,16360
2022-08-26T08:39:22.718Z,16445
2022-08-26T08:40:22.791Z,16616
2022-08-26T08:41:22.721Z,16690
2022-08-26T08:42:23.633Z,16832
2022-08-26T08:43:22.725Z,16892
2022-08-26T08:45:22.732Z,16957
2022-08-26T08:46:22.764Z,16876
2022-08-26T08:47:22.783Z,17034
2022-08-26T08:48:27.875Z,17010
2022-08-26T08:49:22.730Z,17055
2022-08-26T08:50:22.722Z,17088
2022-08-26T08:51:22.740Z,17029
2022-08-26T08:52:22.783Z,17023
2022-08-26T08:53:22.776Z,17086
2022-08-26T08:54:22.740Z,17141
2022-08-26T08:55:22.742Z,17206
2022-08-26T08:56:22.742Z,17305
2022-08-26T08:57:22.786Z,17421
2022-08-26T08:58:22.737Z,17418
2022-08-26T08:59:22.741Z,17493
2022-08-26T09:00:30.444Z,17571
2022-08-26T09:01:22.766Z,17656
2022-08-26T09:02:22.861Z,17547
2022-08-26T09:03:22.734Z,17515
2022-08-26T09:04:22.743Z,17427
2022-08-26T09:05:22.725Z,17091
2022-08-26T09:06:22.732Z,17895
2022-08-26T09:07:22.793Z,18785
2022-08-26T09:08:22.794Z,18785
2022-08-26T09:09:22.728Z,18378
2022-08-26T09:10:22.724Z,18509
2022-08-26T09:11:22.744Z,18531
2022-08-26T09:12:29.516Z,18634
2022-08-26T09:13:26.142Z,18682
2022-08-26T09:14:22.738Z,18579
2022-08-26T09:15:23.962Z,18610
2022-08-26T09:16:22.786Z,18649
2022-08-26T09:17:22.777Z,18708
2022-08-26T09:18:22.767Z,18808
2022-08-26T09:19:22.734Z,18933
2022-08-26T09:20:22.719Z,18986
2022-08-26T09:21:22.726Z,18968
2022-08-26T09:23:22.777Z,19198
2022-08-26T09:24:22.734Z,19248
2022-08-26T09:25:22.735Z,19261
2022-08-26T09:26:25.871Z,19193
2022-08-26T09:27:22.776Z,19167
2022-08-26T09:28:22.736Z,19165
2022-08-26T09:29:22.745Z,19233
2022-08-26T09:30:22.730Z,19161
2022-08-26T09:31:23.661Z,18916
2022-08-26T09:32:22.770Z,18725
2022-08-26T09:33:22.730Z,18793
2022-08-26T09:34:22.734Z,18957
2022-08-26T09:35:22.714Z,19209
2022-08-26T09:36:45.092Z,19156
2022-08-26T09:38:44.060Z,19292
2022-08-26T09:39:44.026Z,19178
2022-08-26T09:40:44.080Z,19147
2022-08-26T09:41:44.000Z,19337
2022-08-26T09:42:44.130Z,19477
2022-08-26T09:43:44.007Z,19432
2022-08-26T09:44:44.002Z,19351
2022-08-26T09:45:49.344Z,19414
2022-08-26T09:46:44.011Z,19429
2022-08-26T09:47:44.054Z,19403
2022-08-26T09:48:43.995Z,19414
2022-08-26T09:49:44.003Z,19451
2022-08-26T09:50:44.002Z,19560
2022-08-26T09:51:44.003Z,19563
2022-08-26T09:52:44.048Z,19543
2022-08-26T09:53:44.046Z,19373
2022-08-26T09:54:43.991Z,19174
2022-08-26T09:55:44.064Z,19230
2022-08-26T09:56:43.995Z,19429
2022-08-26T09:57:44.042Z,19427
2022-08-26T09:58:43.984Z,19318
2022-08-26T09:59:44.027Z,19296
2022-08-26T10:00:43.993Z,19333
2022-08-26T10:01:44.809Z,19108
2022-08-26T10:02:47.857Z,19158
2022-08-26T10:03:44.068Z,19112
2022-08-26T10:04:44.038Z,19023
2022-08-26T10:05:44.006Z,19019
2022-08-26T10:06:44.003Z,19010
2022-08-26T10:07:44.009Z,19010
2022-08-26T10:08:44.189Z,18997
2022-08-26T10:09:43.990Z,18850
2022-08-26T10:10:45.077Z,18843
2022-08-26T10:11:44.001Z,19082
2022-08-26T10:12:44.011Z,19163
2022-08-26T10:13:44.012Z,19335
2022-08-26T10:15:50.066Z,19252
2022-08-26T10:16:44.062Z,19265
2022-08-26T10:17:44.011Z,18972
2022-08-26T10:18:44.008Z,19641
2022-08-26T10:19:57.148Z,19902
2022-08-26T10:20:44.003Z,19808
2022-08-26T10:21:44.024Z,19652
2022-08-26T10:22:44.018Z,19853
2022-08-26T10:23:44.928Z,19718
2022-08-26T10:24:44.002Z,19781
2022-08-26T10:25:44.004Z,19810
2022-08-26T10:26:44.026Z,19858
2022-08-26T10:27:51.190Z,19740
2022-08-26T10:28:44.377Z,19753
2022-08-26T10:29:44.106Z,19843
2022-08-26T10:30:44.011Z,19998
2022-08-26T10:31:44.023Z,17779
2022-08-26T10:32:44.031Z,9055
2022-08-26T10:33:44.005Z,14443
2022-08-26T10:34:43.995Z,11549
2022-08-26T10:35:43.997Z,19134
2022-08-26T10:37:13.412Z,20306
2022-08-26T10:37:44.015Z,20077
2022-08-26T10:38:44.325Z,20055
2022-08-26T10:39:43.990Z,20096
2022-08-26T10:40:44.055Z,20009
2022-08-26T10:41:44.063Z,20065
2022-08-26T10:42:44.024Z,19781
2022-08-26T10:43:44.021Z,19611
2022-08-26T10:44:44.006Z,19735
2022-08-26T10:45:44.035Z,19891
2022-08-26T10:46:44.006Z,19860
2022-08-26T10:47:44.017Z,19849
2022-08-26T10:48:44.004Z,19851
2022-08-26T10:49:44.005Z,19853
2022-08-26T10:50:44.003Z,9645
2022-08-26T10:51:45.743Z,7621
2022-08-26T10:52:44.019Z,7840
2022-08-26T10:53:44.434Z,16734
2022-08-26T10:54:44.016Z,20116
2022-08-26T10:55:44.035Z,8801
2022-08-26T10:56:44.032Z,8635
2022-08-26T10:57:44.026Z,17381
2022-08-26T10:58:44.561Z,19972
2022-08-26T10:59:44.050Z,9733
2022-08-26T11:00:44.191Z,19836
2022-08-26T11:01:44.091Z,9910
2022-08-26T11:02:47.143Z,18301
2022-08-26T11:03:44.039Z,13610
2022-08-26T11:04:48.164Z,18218
2022-08-26T11:05:44.002Z,7282
2022-08-26T11:06:44.024Z,6383
2022-08-26T11:07:44.029Z,6383
2022-08-26T11:08:44.016Z,5948
2022-08-26T11:09:44.000Z,5983
2022-08-26T11:10:44.000Z,5916
2022-08-26T11:11:44.011Z,6089
2022-08-26T11:12:44.021Z,6451
2022-08-26T11:13:43.996Z,6882
2022-08-26T11:14:53.690Z,7369
2022-08-26T11:15:44.001Z,7724
2022-08-26T11:16:44.059Z,8670
2022-08-26T11:17:44.022Z,19843
2022-08-26T11:18:44.003Z,20494
2022-08-26T11:20:00.271Z,20076
2022-08-26T11:20:44.003Z,19672
2022-08-26T11:22:31.743Z,8087
2022-08-26T11:23:30.802Z,7299
2022-08-26T11:24:30.819Z,7767
2022-08-26T11:25:31.192Z,9962
2022-08-26T11:26:43.246Z,19902
2022-08-26T11:27:30.766Z,9503
2022-08-26T11:28:30.781Z,8766
2022-08-26T11:29:30.784Z,8908
2022-08-26T11:30:30.759Z,8908
2022-08-26T11:31:30.791Z,19670
2022-08-26T11:32:30.795Z,13960
2022-08-26T11:33:30.791Z,19062
2022-08-26T11:34:30.778Z,9094
2022-08-26T11:35:30.774Z,9094
2022-08-26T11:36:30.772Z,19243
2022-08-26T11:37:30.880Z,19825
2022-08-26T11:39:36.686Z,19805
2022-08-26T11:40:34.414Z,10786
2022-08-26T11:42:38.222Z,8137
2022-08-26T11:43:37.275Z,7074
2022-08-26T11:44:37.257Z,6381
2022-08-26T11:45:37.393Z,5756
2022-08-26T11:47:35.261Z,5387
2022-08-26T11:48:34.351Z,5216
2022-08-26T11:49:34.326Z,5208
2022-08-26T11:50:34.324Z,5251
2022-08-26T11:51:38.202Z,5660
2022-08-26T11:52:34.314Z,6237
2022-08-26T11:53:34.327Z,7022
2022-08-26T11:54:35.659Z,7964
2022-08-26T11:55:34.318Z,7964
2022-08-26T11:56:34.317Z,7230
2022-08-26T11:57:34.309Z,8644
2022-08-26T11:58:34.333Z,17550
2022-08-26T12:00:34.507Z,19464
2022-08-26T12:01:34.307Z,17432
2022-08-26T12:02:34.309Z,8718
2022-08-26T12:03:34.408Z,7599
2022-08-26T12:04:34.470Z,7044
2022-08-26T12:05:34.308Z,6740
2022-08-26T12:06:36.361Z,6749
2022-08-26T12:07:34.352Z,6749
2022-08-26T12:08:34.325Z,8428
2022-08-26T12:09:34.323Z,8410
2022-08-26T12:10:34.352Z,8723
2022-08-26T12:11:34.302Z,14904
2022-08-26T12:12:35.171Z,18749
2022-08-26T12:13:34.333Z,19163
2022-08-26T12:14:34.319Z,16786
2022-08-26T12:15:34.314Z,16786
2022-08-26T12:16:34.316Z,18669
2022-08-26T12:17:34.310Z,18402
2022-08-26T12:18:34.323Z,18306
2022-08-26T12:19:34.306Z,18229
2022-08-26T12:20:34.323Z,18229
2022-08-26T12:21:34.638Z,17659
2022-08-26T12:22:34.309Z,17495
2022-08-26T12:23:34.333Z,17956
2022-08-26T12:24:34.336Z,17567
2022-08-26T12:25:36.284Z,17567
2022-08-26T12:26:34.299Z,16924
2022-08-26T12:27:34.359Z,16389
2022-08-26T12:28:34.320Z,16048
2022-08-26T12:29:34.301Z,14852
2022-08-26T12:30:34.304Z,8089
2022-08-26T12:31:34.371Z,6370
2022-08-26T12:32:34.298Z,6005
2022-08-26T12:33:34.315Z,6023
2022-08-26T12:34:34.305Z,7017
2022-08-26T12:35:34.348Z,8569
2022-08-26T12:36:34.303Z,7330
2022-08-26T12:37:34.299Z,7182
2022-08-26T12:38:34.334Z,18597
2022-08-26T12:39:34.315Z,7053
2022-08-26T12:40:34.407Z,7354
2022-08-26T12:41:34.304Z,7582
2022-08-26T12:42:34.304Z,13741
2022-08-26T12:43:34.317Z,19690
2022-08-26T12:44:34.297Z,19690
2022-08-26T12:45:34.339Z,6967
2022-08-26T12:46:34.301Z,6967
2022-08-26T12:47:42.725Z,6016
2022-08-26T12:48:34.317Z,5632
2022-08-26T12:49:34.324Z,5149
2022-08-26T12:50:34.304Z,5019
2022-08-26T12:51:34.299Z,5267
2022-08-26T12:52:34.317Z,5352
2022-08-26T12:53:34.326Z,5078
2022-08-26T12:54:34.320Z,5048
2022-08-26T12:55:34.290Z,4982
2022-08-26T12:56:34.291Z,4937
2022-08-26T12:57:34.300Z,5096
2022-08-26T12:58:34.319Z,5828
2022-08-26T12:59:34.296Z,6364
2022-08-26T13:00:34.360Z,6364
2022-08-26T13:01:34.378Z,7114
2022-08-26T13:02:34.291Z,7800
2022-08-26T13:03:34.310Z,8593
2022-08-26T13:04:34.309Z,15031
2022-08-26T13:05:34.302Z,12795
2022-08-26T13:06:34.336Z,21782
2022-08-26T13:07:34.299Z,21782
2022-08-26T13:08:34.311Z,21364
2022-08-26T13:09:34.323Z,20900
2022-08-26T13:10:34.301Z,20452
2022-08-26T13:11:34.298Z,19899
2022-08-26T13:12:34.299Z,19241
2022-08-26T13:13:34.313Z,18970
2022-08-26T13:14:34.303Z,18682
2022-08-26T13:15:34.312Z,10074
2022-08-26T13:16:34.346Z,7369
2022-08-26T13:17:34.310Z,6497
2022-08-26T13:18:34.336Z,6429
2022-08-26T13:19:34.301Z,6559
2022-08-26T13:20:34.293Z,6694
2022-08-26T13:21:37.475Z,6443
2022-08-26T13:22:34.385Z,5968
2022-08-26T13:23:34.307Z,5437
2022-08-26T13:24:34.325Z,5326
2022-08-26T13:25:34.321Z,5557
2022-08-26T13:26:34.303Z,5901
2022-08-26T13:27:34.297Z,6371
2022-08-26T13:28:34.323Z,6747
2022-08-26T13:29:34.298Z,9527
2022-08-26T13:30:34.299Z,9527
2022-08-26T13:31:34.344Z,14775
2022-08-26T13:32:34.303Z,14769
2022-08-26T13:33:34.312Z,14712
2022-08-26T13:34:34.294Z,14222
2022-08-26T13:35:34.301Z,14483
2022-08-26T13:36:34.303Z,15715
2022-08-26T13:37:35.463Z,14837
2022-08-26T13:38:34.309Z,14548
2022-08-26T13:39:34.322Z,14128
2022-08-26T13:40:34.730Z,10001
2022-08-26T13:41:34.293Z,9223
2022-08-26T13:42:34.379Z,7326
2022-08-26T13:43:34.309Z,6300
2022-08-26T13:44:34.294Z,5419
2022-08-26T13:45:34.293Z,5125
2022-08-26T13:46:34.410Z,4567
2022-08-26T13:47:34.305Z,6325
2022-08-26T13:48:34.308Z,5172
2022-08-26T13:49:34.301Z,4888
2022-08-26T13:50:34.296Z,4419
2022-08-26T13:51:34.314Z,3909
2022-08-26T13:52:34.295Z,3426
2022-08-26T13:53:34.329Z,3173
2022-08-26T13:54:34.318Z,3079
2022-08-26T13:55:34.296Z,2877
2022-08-26T13:56:34.292Z,2759
2022-08-26T13:57:34.297Z,2659
2022-08-26T13:58:34.308Z,2591
2022-08-26T13:59:34.289Z,2591
2022-08-26T14:00:34.333Z,2541
2022-08-26T14:01:34.295Z,2538
2022-08-26T14:02:34.292Z,2538
2022-08-26T14:03:34.384Z,2633
2022-08-26T14:04:34.303Z,2755
2022-08-26T14:05:34.295Z,2976
2022-08-26T14:06:34.300Z,2976
2022-08-26T14:07:34.293Z,3192
2022-08-26T14:08:34.318Z,3686
2022-08-26T14:09:38.228Z,4023
2022-08-26T14:10:34.369Z,4023
2022-08-26T14:11:50.637Z,4972
2022-08-26T14:12:34.295Z,6886
2022-08-26T14:13:34.302Z,4436
2022-08-26T14:14:34.293Z,4779
2022-08-26T14:15:34.294Z,5050
2022-08-26T14:16:34.362Z,5114
2022-08-26T14:17:34.287Z,6038
2022-08-26T14:18:38.377Z,4847
2022-08-26T14:19:34.302Z,5540
2022-08-26T14:20:34.299Z,12729
2022-08-26T14:21:34.291Z,14585
2022-08-26T14:22:34.299Z,15479
2022-08-26T14:23:34.315Z,16043
2022-08-26T14:24:34.314Z,16365
2022-08-26T14:25:34.293Z,16846
2022-08-26T14:26:34.292Z,7595
2022-08-26T14:27:34.306Z,6880
2022-08-26T14:28:34.313Z,6757
2022-08-26T14:29:34.289Z,7323
2022-08-26T14:30:34.307Z,10452
2022-08-26T14:31:34.341Z,14719
2022-08-26T14:32:34.303Z,14244
2022-08-26T14:33:34.307Z,9448
2022-08-26T14:34:34.325Z,18673
2022-08-26T14:35:34.296Z,18144
2022-08-26T14:36:34.295Z,18126
2022-08-26T14:37:34.305Z,18079
2022-08-26T14:38:34.318Z,18111
2022-08-26T14:39:34.313Z,18109
2022-08-26T14:40:37.851Z,18131
2022-08-26T14:41:34.296Z,17910
2022-08-26T14:42:34.295Z,8052
2022-08-26T14:43:34.311Z,17639
2022-08-26T14:44:34.306Z,16061
2022-08-26T14:45:34.341Z,6012
2022-08-26T14:46:34.359Z,5218
2022-08-26T14:47:34.304Z,5114
2022-08-26T14:48:34.314Z,5007
2022-08-26T14:49:34.293Z,5050
2022-08-26T14:50:34.293Z,5050
2022-08-26T14:51:34.290Z,4578
2022-08-26T14:52:34.290Z,4362
2022-08-26T14:53:34.306Z,4370
2022-08-26T14:54:34.306Z,4381
2022-08-26T14:55:34.295Z,4414
2022-08-26T14:56:34.308Z,4469
2022-08-26T14:57:34.298Z,4392
2022-08-26T14:58:35.057Z,4394
2022-08-26T14:59:34.294Z,4497
2022-08-26T15:00:34.292Z,4663
2022-08-26T15:01:34.326Z,4727
2022-08-26T15:02:34.561Z,4781
2022-08-26T15:03:34.313Z,4871
2022-08-26T15:04:34.314Z,4906
2022-08-26T15:05:34.299Z,4831
2022-08-26T15:06:34.292Z,4694
2022-08-26T15:07:34.290Z,4694
2022-08-26T15:08:34.305Z,4534
2022-08-26T15:09:34.312Z,4650
2022-08-26T15:10:34.290Z,4650
2022-08-26T15:11:34.288Z,4497
2022-08-26T15:12:34.304Z,4488
2022-08-26T15:13:34.297Z,4443
2022-08-26T15:14:34.293Z,4443
2022-08-26T15:15:34.287Z,4136
2022-08-26T15:16:34.354Z,3789
2022-08-26T15:17:34.296Z,3404
2022-08-26T15:18:34.330Z,3063
2022-08-26T15:19:34.335Z,2740
2022-08-26T15:20:34.309Z,2514
2022-08-26T15:21:34.295Z,2372
2022-08-26T15:22:34.296Z,2320
2022-08-26T15:23:34.329Z,2235
2022-08-26T15:24:34.345Z,2151
2022-08-26T15:25:34.302Z,2151
2022-08-26T15:26:34.293Z,2034
2022-08-26T15:27:34.293Z,2007
2022-08-26T15:28:34.309Z,1981
2022-08-26T15:29:36.397Z,1972
2022-08-26T15:30:34.290Z,1972
2022-08-26T15:31:34.386Z,2001
2022-08-26T15:32:34.290Z,1985
2022-08-26T15:33:34.306Z,1977
2022-08-26T15:34:34.291Z,1963
2022-08-26T15:35:38.387Z,1937
2022-08-26T15:36:34.296Z,1929
2022-08-26T15:37:34.288Z,1913
2022-08-26T15:38:34.313Z,1907
2022-08-26T15:39:34.314Z,1905
2022-08-26T15:40:34.380Z,1905
2022-08-26T15:41:34.975Z,1802
2022-08-26T15:42:34.291Z,1728
2022-08-26T15:43:34.325Z,1666
2022-08-26T15:44:34.291Z,1533
2022-08-26T15:45:34.298Z,1428
2022-08-26T15:46:34.330Z,1332
2022-08-26T15:47:55.363Z,1273
2022-08-26T15:48:34.314Z,1190
2022-08-26T15:49:34.288Z,1052
2022-08-26T15:50:34.311Z,1052
2022-08-26T15:51:34.302Z,766
2022-08-26T15:52:34.287Z,696
2022-08-26T15:53:34.311Z,634
2022-08-26T15:54:34.307Z,578
2022-08-26T15:55:34.292Z,519
2022-08-26T15:56:34.343Z,470
2022-08-26T15:57:34.285Z,420
2022-08-26T15:58:34.306Z,394